x

Port Aransas, Tx (ptat2) Weather Station

9:00pm - Tue 26th Jul 2016 All times are CDT. -5 hours from GMT.

  • Wind
    18mph, 21mph gusts
  • Sea Temp 87°f
  • Air Temp 85°f
  • Sea Pressure 1012mb
  • Port Aransas, Tx
  • Port Aransas, Tx

More Historic Weather Station data

Upgrade to MSW Pro to gain access to the past 30 days of data for over 8000 Wavebouys and Weather Stations around the globe.

Join Pro

Comparision Forecast

View Surf forecast
   
Tue 07/26 9:00pm 18 21 mph 1012mb 87f 85f
8:00pm 17 18 mph 1011.5mb 87f 85f
7:00pm 18 20 mph 1011.3mb 87f 85f
6:00pm 14 17 mph 1011.7mb 87f 85f
5:00pm 14 15 mph 1011.8mb 87f 83f
4:00pm 17 18 mph 1011.9mb 87f 82f
3:00pm 17 21 mph 1012.6mb 86f 81f
2:00pm 17 20 mph 1013.6mb 87f 81f
1:00pm 13 14 mph 1014mb 87f 84f
12:00pm 11 13 mph 1014.4mb 87f 84f
11:00am 14 15 mph 1014.2mb 87f 84f
10:00am 15 16 mph 1013.3mb 87f 84f
9:00am 9 10 mph 1013mb 87f 83f
8:00am 16 22 mph 1012.3mb 87f 84f
7:00am 16 17 mph 1012mb 87f 84f
6:00am 15 16 mph 1011.4mb 87f 84f
5:00am 16 17 mph 1011.5mb 87f 84f
4:00am 16 20 mph 1011.7mb 88f 84f
3:00am 17 20 mph 1011.4mb 88f 84f
2:00am 18 21 mph 1011.2mb 88f 84f
1:00am 20 22 mph 1011.8mb 89f 84f
12:00am 18 20 mph 1012.4mb 89f 85f
Mon 07/25 11:00pm 17 21 mph 1012.5mb 89f 85f
10:00pm 18 20 mph 1012.3mb 89f 85f
9:00pm 20 21 mph 1012mb 89f 85f
8:00pm 16 20 mph 1012.2mb 89f 85f
7:00pm 22 24 mph 1011.2mb 89f 85f
6:00pm 20 22 mph 1011.1mb 90f 85f
5:00pm 17 20 mph 1011.7mb 90f 85f
4:00pm 15 17 mph 1012.1mb 90f 85f
3:00pm 9 10 mph 1012.9mb 89f 85f
2:00pm 9 10 mph 1013.3mb 89f 85f
1:00pm 11 13 mph 1013.8mb 89f 85f
12:00pm 11 13 mph 1013.8mb 88f 85f
11:00am 7 8 mph 1014.3mb 87f 85f
10:00am 13 14 mph 1014.3mb 87f 85f
9:00am 13 14 mph 1014.8mb 87f 85f
8:00am 10 13 mph 1014mb 87f 84f
7:00am 14 15 mph 1013.1mb 87f 84f
6:00am 18 20 mph 1012.5mb 87f 85f
5:00am 13 14 mph 1012.6mb 87f 84f
4:00am 15 16 mph 1012.5mb 88f 85f
3:00am 17 20 mph 1012.6mb 88f 85f
2:00am 18 20 mph 1012.8mb 88f 85f
1:00am 18 21 mph 1013mb 88f 85f
12:00am 20 22 mph 1013.2mb 89f 85f
Sun 07/24 11:00pm 20 21 mph 1013.1mb 89f 85f
10:00pm 18 21 mph 1012.9mb 89f 85f
9:00pm 20 21 mph 1012.6mb 89f 85f
8:00pm 18 21 mph 1012.4mb 89f 86f
7:00pm 17 20 mph 1012.3mb 90f 86f
6:00pm 17 20 mph 1012.1mb 90f 85f
5:00pm 16 18 mph 1012.4mb 90f 85f
4:00pm 15 16 mph 1013mb 89f 85f
3:00pm 15 16 mph 1013.5mb 89f 85f
2:00pm 16 17 mph 1013.8mb 89f 85f
1:00pm 13 15 mph 1014.5mb 88f 85f
12:00pm 13 16 mph 1014.6mb 88f 85f
11:00am 15 16 mph 1014.5mb 87f 85f
10:00am 13 14 mph 1014.3mb 87f 85f
9:00am 11 14 mph 1013.9mb 87f 85f
8:00am 13 14 mph 1013.4mb 87f 85f
7:00am 17 18 mph 1012.9mb 87f 84f
6:00am 14 15 mph 1012.7mb 87f 84f
5:00am 20 22 mph 1012.2mb 88f 84f
4:00am 21 22 mph 1012.3mb 88f 84f
3:00am 22 23 mph 1012.8mb 89f 85f
2:00am 21 24 mph 1013.2mb 89f 85f
1:00am 22 24 mph 1013.7mb 89f 85f
12:00am 22 23 mph 1013.7mb 89f 85f
Sat 07/23 11:00pm 22 24 mph 1013.2mb 90f 85f
10:00pm 20 22 mph 1012.6mb 91f 85f
9:00pm 16 20 mph 1011.8mb 91f 85f
8:00pm 16 20 mph 1011.7mb 91f 85f
7:00pm 16 18 mph 1011.9mb 91f 85f
6:00pm 17 22 mph 1012.4mb 91f 85f
5:00pm 14 16 mph 1013.2mb 91f 85f
4:00pm 11 14 mph 1013.9mb 91f 85f
3:00pm 13 14 mph 1014.5mb 90f 85f
2:00pm 11 13 mph 1015mb 90f 85f
1:00pm 7 8 mph 1015.2mb 89f 85f
12:00pm 7 8 mph 1015.5mb 89f 85f
11:00am 6
mph
1015.7mb 88f 85f
10:00am 6 7 mph 1015.7mb 87f 85f
9:00am 6
mph
1015.6mb 87f 85f
8:00am 7 9 mph 1014.6mb 87f 85f
7:00am 9 11 mph 1014.1mb 87f 84f
6:00am 9 11 mph 1014mb 87f 84f
5:00am 11 13 mph 1014.1mb 87f 84f
4:00am 15 17 mph 1014.5mb 88f 84f